Time;durP1;ratioP1;P1;durP2;ratioP2;P2;SDS_P1;SDS_P2;PMS_P1;PMS_P2;Temp;Humidity;BMP_temperature;BMP_pressure;BME280_temperature;BME280_humidity;BME280_pressure;Samples;Min_cycle;Max_cycle;Signal;HPM_P1;HPM_P2
2023/11/29 00:01:59;;;;;;;17.47;9.67;;;;;;;;;;4983122;28;20034;-79
2023/11/29 00:04:25;;;;;;;18.48;9.95;;;;;;;;;;4965224;28;20494;-79
2023/11/29 00:06:50;;;;;;;16.88;9.85;;;;;;;;;;4979670;28;20403;-79
2023/11/29 00:09:15;;;;;;;18.73;9.80;;;;;;;;;;4984198;28;20068;-78
2023/11/29 00:11:40;;;;;;;19.15;9.98;;;;;;;;;;4982386;28;20065;-78
2023/11/29 00:14:06;;;;;;;18.77;9.68;;;;;;;;;;4981330;28;20062;-78
2023/11/29 00:16:31;;;;;;;18.48;9.48;;;;;;;;;;4982411;28;20034;-78
2023/11/29 00:18:57;;;;;;;18.00;9.07;;;;;;;;;;4980953;28;20755;-79
2023/11/29 00:21:22;;;;;;;18.87;9.60;;;;;;;;;;4980819;28;20038;-78
2023/11/29 00:23:47;;;;;;;15.25;8.27;;;;;;;;;;4980318;28;20483;-78
2023/11/29 00:26:13;;;;;;;17.33;9.70;;;;;;;;;;4984351;28;20549;-79
2023/11/29 00:28:40;;;;;;;16.88;9.88;;;;;;;;;;4981036;28;20027;-78
2023/11/29 00:31:05;;;;;;;16.23;8.85;;;;;;;;;;4982231;28;20022;-79
2023/11/29 00:33:30;;;;;;;16.13;9.70;;;;;;;;;;4978684;28;20035;-79
2023/11/29 00:35:56;;;;;;;15.57;8.77;;;;;;;;;;4981432;28;20479;-79
2023/11/29 00:38:21;;;;;;;14.05;7.55;;;;;;;;;;4978543;28;20042;-78
2023/11/29 00:40:46;;;;;;;14.70;8.48;;;;;;;;;;4984166;28;20033;-78
2023/11/29 00:43:12;;;;;;;12.68;7.97;;;;;;;;;;4979857;28;20022;-78
2023/11/29 00:45:37;;;;;;;14.68;8.90;;;;;;;;;;4977579;28;20425;-78
2023/11/29 00:48:02;;;;;;;16.90;8.30;;;;;;;;;;4980774;28;20027;-77
2023/11/29 00:50:28;;;;;;;13.00;8.75;;;;;;;;;;4983807;28;20026;-77
2023/11/29 00:52:53;;;;;;;10.43;6.72;;;;;;;;;;4983498;28;20996;-78
2023/11/29 00:55:18;;;;;;;13.00;7.53;;;;;;;;;;4984315;28;20049;-78
2023/11/29 00:57:43;;;;;;;10.53;6.60;;;;;;;;;;4983808;28;20034;-77
2023/11/29 01:00:10;;;;;;;9.63;6.20;;;;;;;;;;4978947;28;20437;-77
2023/11/29 01:02:35;;;;;;;10.30;6.43;;;;;;;;;;4978784;28;20181;-78
2023/11/29 01:05:01;;;;;;;12.37;7.80;;;;;;;;;;4991123;28;20080;-78
2023/11/29 01:07:26;;;;;;;11.37;6.90;;;;;;;;;;4981289;28;20027;-77
2023/11/29 01:09:51;;;;;;;10.38;6.28;;;;;;;;;;4983776;28;20570;-78
2023/11/29 01:12:16;;;;;;;11.60;6.45;;;;;;;;;;4984334;28;20026;-77
2023/11/29 01:14:41;;;;;;;10.80;6.93;;;;;;;;;;4978002;28;20612;-78
2023/11/29 01:17:07;;;;;;;9.47;6.17;;;;;;;;;;4982511;28;20550;-78
2023/11/29 01:19:32;;;;;;;9.50;6.63;;;;;;;;;;4978582;28;20039;-78
2023/11/29 01:21:59;;;;;;;9.52;5.65;;;;;;;;;;4984850;28;20464;-78
2023/11/29 01:24:24;;;;;;;8.90;6.07;;;;;;;;;;4978003;28;20034;-78
2023/11/29 01:26:49;;;;;;;8.73;5.67;;;;;;;;;;4986050;28;20387;-78
2023/11/29 01:29:14;;;;;;;9.93;6.13;;;;;;;;;;4981866;28;20037;-77
2023/11/29 01:31:40;;;;;;;9.27;5.70;;;;;;;;;;4994744;23;20175;-74
2023/11/29 01:34:05;;;;;;;9.57;6.77;;;;;;;;;;4983064;28;20030;-74
2023/11/29 01:36:30;;;;;;;9.50;6.28;;;;;;;;;;4985202;28;20054;-74
2023/11/29 01:38:55;;;;;;;9.00;5.78;;;;;;;;;;4981547;28;20109;-74
2023/11/29 01:41:21;;;;;;;8.87;5.00;;;;;;;;;;4982176;28;20031;-74
2023/11/29 01:43:46;;;;;;;8.90;5.80;;;;;;;;;;4986254;28;20037;-74
2023/11/29 01:46:12;;;;;;;8.48;5.28;;;;;;;;;;4986490;28;20030;-74
2023/11/29 01:48:37;;;;;;;9.90;4.95;;;;;;;;;;4982308;28;20035;-74
2023/11/29 01:51:03;;;;;;;9.95;5.32;;;;;;;;;;4983404;28;20035;-75
2023/11/29 01:53:29;;;;;;;9.03;5.27;;;;;;;;;;4976849;28;20406;-75
2023/11/29 01:55:56;;;;;;;8.17;5.53;;;;;;;;;;4982797;28;20026;-74
2023/11/29 01:58:22;;;;;;;8.97;5.53;;;;;;;;;;4986426;28;20121;-75
2023/11/29 02:00:47;;;;;;;9.03;5.67;;;;;;;;;;4970261;28;20049;-75
2023/11/29 02:03:13;;;;;;;12.60;6.20;;;;;;;;;;4984819;28;20035;-75
2023/11/29 02:05:38;;;;;;;8.50;5.70;;;;;;;;;;4983293;28;20026;-75
2023/11/29 02:08:04;;;;;;;10.73;6.03;;;;;;;;;;4984617;28;20039;-75
2023/11/29 02:10:29;;;;;;;8.90;5.30;;;;;;;;;;4980075;28;20030;-75
2023/11/29 02:12:54;;;;;;;9.83;5.40;;;;;;;;;;4983481;28;20034;-75
2023/11/29 02:15:19;;;;;;;6.97;4.57;;;;;;;;;;4988952;28;20031;-75
2023/11/29 02:17:45;;;;;;;8.23;4.40;;;;;;;;;;4984656;28;20034;-75
2023/11/29 02:20:15;;;;;;;7.20;4.80;;;;;;;;;;4981816;28;20042;-75
2023/11/29 02:22:40;;;;;;;7.33;4.30;;;;;;;;;;4985686;28;20061;-75
2023/11/29 02:25:06;;;;;;;8.00;4.37;;;;;;;;;;4989621;28;20115;-75
2023/11/29 02:27:31;;;;;;;6.27;3.70;;;;;;;;;;4987828;28;20038;-75
2023/11/29 02:29:56;;;;;;;5.70;3.63;;;;;;;;;;4989634;28;20425;-75
2023/11/29 02:32:21;;;;;;;6.33;3.97;;;;;;;;;;4981580;28;20035;-75
2023/11/29 02:34:46;;;;;;;5.47;3.40;;;;;;;;;;4982422;28;20084;-75
2023/11/29 02:37:12;;;;;;;7.83;4.20;;;;;;;;;;4981584;28;20040;-75
2023/11/29 02:39:37;;;;;;;8.13;4.77;;;;;;;;;;4970392;28;20035;-75
2023/11/29 02:42:02;;;;;;;7.07;3.73;;;;;;;;;;4983561;28;20080;-75
2023/11/29 02:44:27;;;;;;;9.40;4.33;;;;;;;;;;4982800;28;20033;-75
2023/11/29 02:46:53;;;;;;;7.87;4.30;;;;;;;;;;4987337;28;20045;-75
2023/11/29 02:49:18;;;;;;;7.53;4.80;;;;;;;;;;4980813;28;20062;-75
2023/11/29 02:51:43;;;;;;;9.03;5.03;;;;;;;;;;4986194;28;20100;-75
2023/11/29 02:54:08;;;;;;;11.20;6.80;;;;;;;;;;4989128;28;20039;-76
2023/11/29 02:56:34;;;;;;;8.33;4.67;;;;;;;;;;4985617;28;20077;-75
2023/11/29 02:58:59;;;;;;;7.87;4.77;;;;;;;;;;4984443;28;20053;-75
2023/11/29 03:01:24;;;;;;;8.27;4.93;;;;;;;;;;4981177;28;20034;-75
2023/11/29 03:03:49;;;;;;;7.67;4.07;;;;;;;;;;4982805;28;20022;-76
2023/11/29 03:06:15;;;;;;;6.97;3.90;;;;;;;;;;4989933;28;20407;-75
2023/11/29 03:08:40;;;;;;;7.57;4.33;;;;;;;;;;4985152;28;20033;-75
2023/11/29 03:11:05;;;;;;;6.87;3.97;;;;;;;;;;4986557;28;20161;-76
2023/11/29 03:13:30;;;;;;;7.47;4.53;;;;;;;;;;4986035;28;20042;-75
2023/11/29 03:15:56;;;;;;;6.50;4.10;;;;;;;;;;4988798;28;20030;-75
2023/11/29 03:18:21;;;;;;;6.70;3.33;;;;;;;;;;4981464;28;20099;-75
2023/11/29 03:20:46;;;;;;;7.17;3.90;;;;;;;;;;4987085;28;20022;-75
2023/11/29 03:23:11;;;;;;;6.53;4.13;;;;;;;;;;4987290;28;20053;-75
2023/11/29 03:25:36;;;;;;;7.63;4.80;;;;;;;;;;4966629;28;20029;-75
2023/11/29 03:28:02;;;;;;;7.77;4.83;;;;;;;;;;4987262;28;20479;-75
2023/11/29 03:30:27;;;;;;;7.60;5.27;;;;;;;;;;4981875;28;20049;-75
2023/11/29 03:32:52;;;;;;;6.40;4.13;;;;;;;;;;4982262;28;20026;-75
2023/11/29 03:35:17;;;;;;;7.17;4.97;;;;;;;;;;4985091;28;20059;-76
2023/11/29 03:37:43;;;;;;;6.67;4.67;;;;;;;;;;4985094;28;20027;-75
2023/11/29 03:40:08;;;;;;;7.53;5.13;;;;;;;;;;4986181;28;20427;-75
2023/11/29 03:42:34;;;;;;;8.73;5.00;;;;;;;;;;4981309;28;20062;-75
2023/11/29 03:45:01;;;;;;;8.40;5.20;;;;;;;;;;4980925;28;20113;-75
2023/11/29 03:47:26;;;;;;;9.40;5.23;;;;;;;;;;4986583;28;20030;-75
2023/11/29 03:49:52;;;;;;;10.40;5.43;;;;;;;;;;4988574;28;20026;-75
2023/11/29 03:52:19;;;;;;;10.40;6.10;;;;;;;;;;4967960;28;20053;-75
2023/11/29 03:54:44;;;;;;;8.57;5.80;;;;;;;;;;4983734;28;20450;-75
2023/11/29 03:57:09;;;;;;;9.93;5.83;;;;;;;;;;4983825;28;20044;-75
2023/11/29 03:59:35;;;;;;;13.40;7.13;;;;;;;;;;4978498;28;20039;-75
2023/11/29 04:02:00;;;;;;;9.83;6.47;;;;;;;;;;4994284;28;20035;-76
2023/11/29 04:04:25;;;;;;;8.83;5.37;;;;;;;;;;4986491;28;20035;-75
2023/11/29 04:06:50;;;;;;;12.23;7.47;;;;;;;;;;4988600;28;20037;-75
2023/11/29 04:09:15;;;;;;;11.37;6.67;;;;;;;;;;4983153;28;20746;-77
2023/11/29 04:11:43;;;;;;;8.57;5.63;;;;;;;;;;4990768;28;20038;-75
2023/11/29 04:14:09;;;;;;;11.40;7.20;;;;;;;;;;4980580;28;20452;-75
2023/11/29 04:16:35;;;;;;;11.50;7.17;;;;;;;;;;4986352;28;20087;-75
2023/11/29 04:19:00;;;;;;;10.57;6.40;;;;;;;;;;4987997;28;20030;-75
2023/11/29 04:21:26;;;;;;;10.17;6.93;;;;;;;;;;4981200;28;20075;-74
2023/11/29 04:23:51;;;;;;;11.20;6.80;;;;;;;;;;4982043;28;20018;-75
2023/11/29 04:26:30;;;;;;;10.93;7.00;;;;;;;;;;4981160;28;20052;-76
2023/11/29 04:28:58;;;;;;;11.93;6.80;;;;;;;;;;4984094;28;20565;-76
2023/11/29 04:31:24;;;;;;;13.77;8.00;;;;;;;;;;4986659;28;20079;-76
2023/11/29 04:33:49;;;;;;;11.07;7.40;;;;;;;;;;4985668;28;20034;-77
2023/11/29 04:36:14;;;;;;;12.37;7.70;;;;;;;;;;4982357;28;20026;-77
2023/11/29 04:38:40;;;;;;;14.43;7.03;;;;;;;;;;4980479;28;20600;-77
2023/11/29 04:41:05;;;;;;;10.70;6.77;;;;;;;;;;4981260;28;20109;-77
2023/11/29 04:43:31;;;;;;;11.63;7.40;;;;;;;;;;4983799;28;20032;-77
2023/11/29 04:45:56;;;;;;;13.50;8.13;;;;;;;;;;4984976;28;20023;-77
2023/11/29 04:48:22;;;;;;;11.50;7.20;;;;;;;;;;4984046;28;20105;-77
2023/11/29 04:50:48;;;;;;;12.27;7.50;;;;;;;;;;4979146;28;20109;-76
2023/11/29 04:53:13;;;;;;;12.77;7.53;;;;;;;;;;4981895;28;20041;-77
2023/11/29 04:55:38;;;;;;;12.70;7.47;;;;;;;;;;4981903;28;20030;-77
2023/11/29 04:58:03;;;;;;;12.40;7.47;;;;;;;;;;4988295;28;20564;-77
2023/11/29 05:00:29;;;;;;;10.17;6.70;;;;;;;;;;4979758;28;20037;-77
2023/11/29 05:02:55;;;;;;;11.07;6.87;;;;;;;;;;4981619;28;20425;-77
2023/11/29 05:05:20;;;;;;;12.90;7.40;;;;;;;;;;4977737;28;20057;-76
2023/11/29 05:07:45;;;;;;;12.47;7.57;;;;;;;;;;4980368;28;20469;-77
2023/11/29 05:10:11;;;;;;;11.33;7.43;;;;;;;;;;4980253;28;20467;-77
2023/11/29 05:12:36;;;;;;;20.00;10.07;;;;;;;;;;4983110;28;20084;-76
2023/11/29 05:15:02;;;;;;;18.87;10.83;;;;;;;;;;4985317;28;20041;-77
2023/11/29 05:17:27;;;;;;;14.87;8.30;;;;;;;;;;4982887;28;20034;-77
2023/11/29 05:19:52;;;;;;;11.80;8.07;;;;;;;;;;4981252;28;20079;-77
2023/11/29 05:22:17;;;;;;;11.83;6.63;;;;;;;;;;4978475;28;20038;-77
2023/11/29 05:24:42;;;;;;;33.80;16.10;;;;;;;;;;4983015;28;20450;-77
2023/11/29 05:27:08;;;;;;;22.20;13.20;;;;;;;;;;4983552;28;20034;-77
2023/11/29 05:29:33;;;;;;;13.53;9.10;;;;;;;;;;4979695;28;20482;-77
2023/11/29 05:31:58;;;;;;;13.20;7.37;;;;;;;;;;4983505;28;20039;-77
2023/11/29 05:34:24;;;;;;;12.30;6.83;;;;;;;;;;4982268;28;20121;-77
2023/11/29 05:36:49;;;;;;;12.60;7.77;;;;;;;;;;4979915;28;20039;-77
2023/11/29 05:39:14;;;;;;;9.83;6.37;;;;;;;;;;4990494;28;20069;-77
2023/11/29 05:41:39;;;;;;;12.43;7.67;;;;;;;;;;4984636;28;20073;-77
2023/11/29 05:44:04;;;;;;;11.77;7.00;;;;;;;;;;4987506;28;20076;-77
2023/11/29 05:46:31;;;;;;;15.17;8.67;;;;;;;;;;4984611;28;20062;-77
2023/11/29 05:48:58;;;;;;;13.03;7.67;;;;;;;;;;4990093;28;20105;-77
2023/11/29 05:51:24;;;;;;;13.80;7.97;;;;;;;;;;4980299;28;20052;-77
2023/11/29 05:53:49;;;;;;;10.90;6.73;;;;;;;;;;4984838;28;20056;-77
2023/11/29 05:56:15;;;;;;;10.17;6.00;;;;;;;;;;4989338;28;20046;-77
2023/11/29 05:58:40;;;;;;;10.53;5.80;;;;;;;;;;4985575;28;20041;-77
2023/11/29 06:01:07;;;;;;;8.70;5.60;;;;;;;;;;4986082;28;20414;-76
2023/11/29 06:03:32;;;;;;;12.03;7.63;;;;;;;;;;4980505;28;20110;-77
2023/11/29 06:05:58;;;;;;;10.03;6.87;;;;;;;;;;4987505;28;20541;-77
2023/11/29 06:08:23;;;;;;;8.83;5.90;;;;;;;;;;4988340;28;20585;-76
2023/11/29 06:10:48;;;;;;;10.43;5.60;;;;;;;;;;4989460;28;20084;-77
2023/11/29 06:13:13;;;;;;;9.77;6.43;;;;;;;;;;4988717;28;20053;-77
2023/11/29 06:15:38;;;;;;;9.70;6.43;;;;;;;;;;4983323;28;20049;-77
2023/11/29 06:18:05;;;;;;;9.17;5.53;;;;;;;;;;4983763;28;20038;-77
2023/11/29 06:20:30;;;;;;;11.90;5.67;;;;;;;;;;4987642;28;20053;-76
2023/11/29 06:22:55;;;;;;;9.90;6.30;;;;;;;;;;4997115;28;20019;-77
2023/11/29 06:25:21;;;;;;;9.77;5.70;;;;;;;;;;4987058;28;20095;-77
2023/11/29 06:27:46;;;;;;;9.03;5.47;;;;;;;;;;4983521;28;20105;-77
2023/11/29 06:30:11;;;;;;;10.20;6.13;;;;;;;;;;4984012;28;20512;-77
2023/11/29 06:32:36;;;;;;;11.13;6.13;;;;;;;;;;4981313;28;20042;-77
2023/11/29 06:35:02;;;;;;;10.37;5.87;;;;;;;;;;4990144;28;20034;-77
2023/11/29 06:37:27;;;;;;;10.83;6.30;;;;;;;;;;4984857;28;20414;-77
2023/11/29 06:39:53;;;;;;;8.33;5.00;;;;;;;;;;4989120;28;20034;-77
2023/11/29 06:42:18;;;;;;;7.13;3.97;;;;;;;;;;4982645;28;20049;-75
2023/11/29 06:44:44;;;;;;;8.70;4.13;;;;;;;;;;4982052;28;20027;-75
2023/11/29 06:47:09;;;;;;;7.20;4.03;;;;;;;;;;4986566;28;20042;-75
2023/11/29 06:49:34;;;;;;;7.47;4.47;;;;;;;;;;4987050;28;20023;-75
2023/11/29 06:51:59;;;;;;;9.20;3.93;;;;;;;;;;4988828;28;20168;-75
2023/11/29 06:54:24;;;;;;;8.73;3.87;;;;;;;;;;4984782;28;20406;-75
2023/11/29 06:56:50;;;;;;;7.07;4.37;;;;;;;;;;4983249;28;20026;-75
2023/11/29 06:59:15;;;;;;;7.63;4.70;;;;;;;;;;4981685;28;20137;-75
2023/11/29 07:01:40;;;;;;;8.03;4.30;;;;;;;;;;4983977;28;20038;-75
2023/11/29 07:04:05;;;;;;;8.77;4.33;;;;;;;;;;4988488;28;20034;-75
2023/11/29 07:06:31;;;;;;;7.97;4.13;;;;;;;;;;4982291;28;20031;-76
2023/11/29 07:08:56;;;;;;;12.63;6.13;;;;;;;;;;4985735;28;20026;-75
2023/11/29 07:11:21;;;;;;;12.77;6.33;;;;;;;;;;4985549;28;20498;-75
2023/11/29 07:13:46;;;;;;;8.90;4.90;;;;;;;;;;4981640;28;20038;-75
2023/11/29 07:16:11;;;;;;;8.33;4.20;;;;;;;;;;4983129;28;20403;-75
2023/11/29 07:18:37;;;;;;;7.23;4.33;;;;;;;;;;4985691;28;20399;-76
2023/11/29 07:21:03;;;;;;;8.20;4.40;;;;;;;;;;4986587;28;20128;-75
2023/11/29 07:23:28;;;;;;;7.67;3.73;;;;;;;;;;4984502;28;20487;-76
2023/11/29 07:25:54;;;;;;;6.90;4.70;;;;;;;;;;4983506;28;20022;-76
2023/11/29 07:28:19;;;;;;;7.50;4.13;;;;;;;;;;4987141;28;20027;-75
2023/11/29 07:30:44;;;;;;;8.13;5.13;;;;;;;;;;4987313;28;20499;-75
2023/11/29 07:33:10;;;;;;;7.17;4.50;;;;;;;;;;5045184;23;20044;-81
2023/11/29 07:35:36;;;;;;;6.10;3.80;;;;;;;;;;5052254;28;20108;-81
2023/11/29 07:38:01;;;;;;;5.40;3.20;;;;;;;;;;5051507;28;20056;-80
2023/11/29 07:40:26;;;;;;;4.53;2.60;;;;;;;;;;5065413;28;20515;-81
2023/11/29 07:42:51;;;;;;;5.97;3.17;;;;;;;;;;5063592;28;20044;-81
2023/11/29 07:45:17;;;;;;;5.77;3.63;;;;;;;;;;5062317;28;20451;-81
2023/11/29 07:47:43;;;;;;;6.27;3.67;;;;;;;;;;5052232;28;20476;-81
2023/11/29 07:50:08;;;;;;;5.90;3.10;;;;;;;;;;5068324;28;20059;-81
2023/11/29 07:52:35;;;;;;;6.53;3.97;;;;;;;;;;5045817;28;20033;-80
2023/11/29 07:55:01;;;;;;;5.27;2.97;;;;;;;;;;5064039;28;20037;-81
2023/11/29 07:57:26;;;;;;;6.07;4.00;;;;;;;;;;5067992;28;20035;-81
2023/11/29 07:59:51;;;;;;;6.87;4.23;;;;;;;;;;5070443;28;20493;-81
2023/11/29 08:02:16;;;;;;;6.60;2.87;;;;;;;;;;5069394;28;20024;-81
2023/11/29 08:04:42;;;;;;;6.40;3.60;;;;;;;;;;5066049;28;20033;-79
2023/11/29 08:07:07;;;;;;;6.27;3.63;;;;;;;;;;5069136;28;20037;-79
2023/11/29 08:09:32;;;;;;;7.07;4.27;;;;;;;;;;5048962;28;20281;-79
2023/11/29 08:11:57;;;;;;;6.47;3.97;;;;;;;;;;5071743;28;20103;-79
2023/11/29 08:14:22;;;;;;;6.03;3.77;;;;;;;;;;5052416;28;20081;-79
2023/11/29 08:16:48;;;;;;;12.37;6.50;;;;;;;;;;5067451;28;20037;-79
2023/11/29 08:19:13;;;;;;;7.90;4.03;;;;;;;;;;5069708;28;20040;-79
2023/11/29 08:21:38;;;;;;;5.60;3.60;;;;;;;;;;5049210;28;20028;-79
2023/11/29 08:24:04;;;;;;;6.40;3.53;;;;;;;;;;5064602;28;20024;-79
2023/11/29 08:26:29;;;;;;;5.83;3.63;;;;;;;;;;5070757;28;20489;-79
2023/11/29 08:28:54;;;;;;;6.27;3.63;;;;;;;;;;5052544;28;20020;-79
2023/11/29 08:31:19;;;;;;;5.30;2.97;;;;;;;;;;5067904;28;20493;-79
2023/11/29 08:33:45;;;;;;;8.00;3.77;;;;;;;;;;5047011;28;20121;-79
2023/11/29 08:36:11;;;;;;;8.23;4.03;;;;;;;;;;5065234;28;20039;-79
2023/11/29 08:38:36;;;;;;;6.03;3.20;;;;;;;;;;5069581;28;20024;-79
2023/11/29 08:41:01;;;;;;;5.67;3.33;;;;;;;;;;5071936;28;20412;-78
2023/11/29 08:43:26;;;;;;;5.18;3.40;;;;;;;;;;5072073;28;20073;-79
2023/11/29 08:45:51;;;;;;;7.55;4.43;;;;;;;;;;5066700;28;20609;-79
2023/11/29 08:48:16;;;;;;;6.35;3.72;;;;;;;;;;5070597;28;20101;-79
2023/11/29 08:50:42;;;;;;;10.10;4.35;;;;;;;;;;5044591;28;20025;-79
2023/11/29 08:53:07;;;;;;;5.95;3.63;;;;;;;;;;5067302;28;20481;-78
2023/11/29 08:55:32;;;;;;;8.45;4.45;;;;;;;;;;5068973;28;20055;-78
2023/11/29 08:57:58;;;;;;;9.45;5.38;;;;;;;;;;5070252;28;20040;-78
2023/11/29 09:00:23;;;;;;;8.13;4.78;;;;;;;;;;5051051;28;20389;-78
2023/11/29 09:02:48;;;;;;;8.05;4.35;;;;;;;;;;5063863;28;20041;-78
2023/11/29 09:05:17;;;;;;;9.38;5.78;;;;;;;;;;5061999;28;20032;-78
2023/11/29 09:07:42;;;;;;;7.78;4.65;;;;;;;;;;5071872;28;20365;-78
2023/11/29 09:10:07;;;;;;;6.80;4.07;;;;;;;;;;5073989;28;20044;-78
2023/11/29 09:12:32;;;;;;;8.35;5.53;;;;;;;;;;5069364;28;20064;-78
2023/11/29 09:14:58;;;;;;;8.20;4.38;;;;;;;;;;5069980;28;20457;-78
2023/11/29 09:17:23;;;;;;;6.30;4.20;;;;;;;;;;5070264;28;20040;-78
2023/11/29 09:19:53;;;;;;;5.38;3.28;;;;;;;;;;5070717;28;20039;-78
2023/11/29 09:22:19;;;;;;;7.85;4.28;;;;;;;;;;5073144;28;20037;-78
2023/11/29 09:24:44;;;;;;;7.75;4.85;;;;;;;;;;5070755;28;20037;-78
2023/11/29 09:27:11;;;;;;;6.82;3.83;;;;;;;;;;5072555;28;20036;-78
2023/11/29 09:29:36;;;;;;;7.55;4.75;;;;;;;;;;5069175;28;20048;-78
2023/11/29 09:32:02;;;;;;;6.18;4.05;;;;;;;;;;5067345;28;20026;-79
2023/11/29 09:34:27;;;;;;;7.07;4.45;;;;;;;;;;5066710;28;20079;-79
2023/11/29 09:36:54;;;;;;;6.63;3.78;;;;;;;;;;5071807;28;20090;-79
2023/11/29 09:39:19;;;;;;;6.80;4.43;;;;;;;;;;5071513;28;20037;-78
2023/11/29 09:41:47;;;;;;;6.57;4.28;;;;;;;;;;5069497;28;20045;-78
2023/11/29 09:44:13;;;;;;;7.68;4.95;;;;;;;;;;5052087;28;20094;-78
2023/11/29 09:46:38;;;;;;;6.53;4.18;;;;;;;;;;5067823;28;20032;-78
2023/11/29 09:49:03;;;;;;;6.32;4.55;;;;;;;;;;5070509;28;20083;-79
2023/11/29 09:51:29;;;;;;;7.88;4.50;;;;;;;;;;5071466;28;20033;-78
2023/11/29 09:53:54;;;;;;;7.30;4.20;;;;;;;;;;5055981;28;20105;-78
2023/11/29 09:56:19;;;;;;;6.40;4.60;;;;;;;;;;5054463;28;20036;-78
2023/11/29 09:58:45;;;;;;;11.63;5.75;;;;;;;;;;5069355;28;20037;-78
2023/11/29 10:01:11;;;;;;;8.10;5.50;;;;;;;;;;5068532;28;20039;-78
2023/11/29 10:03:37;;;;;;;7.32;4.47;;;;;;;;;;5069771;28;20028;-78
2023/11/29 10:06:02;;;;;;;7.55;4.85;;;;;;;;;;5071084;28;20401;-79
2023/11/29 10:08:28;;;;;;;7.57;4.80;;;;;;;;;;5073025;28;20036;-79
2023/11/29 10:10:53;;;;;;;8.80;5.63;;;;;;;;;;5070269;28;20036;-78
2023/11/29 10:13:18;;;;;;;7.57;4.28;;;;;;;;;;5065538;28;20445;-79
2023/11/29 10:15:48;;;;;;;8.45;5.72;;;;;;;;;;5071397;28;20043;-79
2023/11/29 10:18:17;;;;;;;8.88;5.13;;;;;;;;;;5054678;28;20078;-79
2023/11/29 10:20:50;;;;;;;9.32;5.30;;;;;;;;;;5057020;28;20029;-79
2023/11/29 10:23:15;;;;;;;;;;;;;;;;;;5066613;28;20400;-79
2023/11/29 10:25:41;;;;;;;7.65;5.25;;;;;;;;;;5067054;28;20325;-79
2023/11/29 10:28:06;;;;;;;7.38;5.05;;;;;;;;;;5070484;28;20311;-79
2023/11/29 10:30:31;;;;;;;7.50;4.63;;;;;;;;;;5069242;28;20450;-79
2023/11/29 10:32:57;;;;;;;7.55;5.20;;;;;;;;;;5070901;28;20029;-78
2023/11/29 10:35:23;;;;;;;8.50;5.05;;;;;;;;;;5069390;28;20075;-79
2023/11/29 10:38:00;;;;;;;8.00;5.53;;;;;;;;;;5071001;28;20515;-79
2023/11/29 10:40:26;;;;;;;7.65;5.03;;;;;;;;;;5068666;28;20044;-79
2023/11/29 10:42:52;;;;;;;7.93;4.95;;;;;;;;;;5064483;28;20036;-79
2023/11/29 10:45:20;;;;;;;7.78;5.43;;;;;;;;;;5055152;28;20382;-79
2023/11/29 10:47:58;;;;;;;7.50;5.75;;;;;;;;;;5057479;28;20025;-79
2023/11/29 10:50:24;;;;;;;9.00;5.70;;;;;;;;;;5067151;28;20094;-79
2023/11/29 10:52:50;;;;;;;8.40;5.70;;;;;;;;;;5066309;28;20068;-79
2023/11/29 10:55:15;;;;;;;7.75;4.93;;;;;;;;;;5065787;28;20055;-79
2023/11/29 10:57:48;;;;;;;9.63;5.53;;;;;;;;;;5071281;28;20036;-79
2023/11/29 11:00:15;;;;;;;8.80;5.10;;;;;;;;;;5072986;28;20105;-79
2023/11/29 11:02:47;;;;;;;10.27;6.95;;;;;;;;;;5055362;28;20396;-79
2023/11/29 11:05:15;;;;;;;10.45;7.10;;;;;;;;;;5069479;28;20028;-80
2023/11/29 11:07:41;;;;;;;9.45;6.28;;;;;;;;;;5067495;28;20036;-80
2023/11/29 11:10:07;;;;;;;8.00;5.63;;;;;;;;;;5054018;28;20024;-80
2023/11/29 11:12:32;;;;;;;8.20;5.10;;;;;;;;;;5068165;28;20035;-80
2023/11/29 11:14:59;;;;;;;8.50;5.30;;;;;;;;;;5070007;28;20026;-80
2023/11/29 11:17:24;;;;;;;7.53;5.57;;;;;;;;;;5070063;28;20078;-80
2023/11/29 11:19:50;;;;;;;7.90;5.60;;;;;;;;;;5068082;28;20036;-80
2023/11/29 11:22:25;;;;;;;8.38;5.03;;;;;;;;;;5065054;28;20454;-80
2023/11/29 11:24:57;;;;;;;8.63;6.45;;;;;;;;;;5063233;28;20053;-80
2023/11/29 11:27:22;;;;;;;;;;;;;;;;;;5054366;28;20040;-80
2023/11/29 11:29:48;;;;;;;9.82;6.03;;;;;;;;;;5068278;28;19913;-80
2023/11/29 11:32:13;;;;;;;11.20;6.80;;;;;;;;;;5043363;28;20290;-80
2023/11/29 11:34:38;;;;;;;7.55;4.72;;;;;;;;;;5049048;28;20055;-80
2023/11/29 11:37:04;;;;;;;8.65;5.30;;;;;;;;;;5054026;28;20032;-80
2023/11/29 11:39:29;;;;;;;7.97;4.75;;;;;;;;;;5068138;28;20035;-80
2023/11/29 11:41:55;;;;;;;10.10;5.55;;;;;;;;;;5069970;28;20040;-80
2023/11/29 11:44:21;;;;;;;8.57;5.88;;;;;;;;;;5069163;28;20056;-80
2023/11/29 11:46:51;;;;;;;6.65;4.95;;;;;;;;;;5067744;28;20115;-80
2023/11/29 11:49:16;;;;;;;9.15;5.75;;;;;;;;;;5033285;28;20082;-80
2023/11/29 11:51:41;;;;;;;8.48;5.78;;;;;;;;;;5045586;28;20037;-80
2023/11/29 11:54:07;;;;;;;8.60;5.60;;;;;;;;;;5067165;28;20071;-80
2023/11/29 11:56:32;;;;;;;8.98;5.80;;;;;;;;;;5070471;28;20036;-80
2023/11/29 11:58:57;;;;;;;10.75;5.40;;;;;;;;;;5050958;28;20063;-80
2023/11/29 12:01:23;;;;;;;7.70;4.65;;;;;;;;;;5051266;28;20040;-80
2023/11/29 12:03:48;;;;;;;9.40;5.60;;;;;;;;;;5063466;28;20041;-80
2023/11/29 12:06:13;;;;;;;11.10;6.18;;;;;;;;;;5063557;28;20031;-80
2023/11/29 12:08:38;;;;;;;9.30;6.22;;;;;;;;;;5053017;28;20024;-80
2023/11/29 12:11:06;;;;;;;8.82;5.85;;;;;;;;;;5053434;28;20111;-80
2023/11/29 12:13:32;;;;;;;8.75;5.00;;;;;;;;;;5052641;28;20043;-80
2023/11/29 12:15:58;;;;;;;8.73;5.70;;;;;;;;;;5067472;28;20028;-80
2023/11/29 12:18:24;;;;;;;6.78;4.60;;;;;;;;;;5048440;28;20115;-80
2023/11/29 12:20:49;;;;;;;7.82;5.13;;;;;;;;;;5063604;28;20029;-80
2023/11/29 12:23:14;;;;;;;8.75;4.88;;;;;;;;;;5059053;28;20093;-80
2023/11/29 12:25:40;;;;;;;7.72;5.43;;;;;;;;;;5051380;28;20020;-80
2023/11/29 12:28:05;;;;;;;7.75;5.07;;;;;;;;;;5064852;28;20127;-80
2023/11/29 12:30:30;;;;;;;6.95;4.72;;;;;;;;;;5068023;28;20044;-80
2023/11/29 12:32:55;;;;;;;7.30;5.07;;;;;;;;;;5049143;28;20036;-81
2023/11/29 12:35:21;;;;;;;7.95;5.45;;;;;;;;;;5059767;28;20044;-81
2023/11/29 12:37:46;;;;;;;7.85;4.72;;;;;;;;;;5066944;28;20099;-81
2023/11/29 12:40:15;;;;;;;11.25;5.72;;;;;;;;;;5058100;28;20028;-81
2023/11/29 12:42:41;;;;;;;7.18;5.22;;;;;;;;;;5068794;28;20481;-81
2023/11/29 12:45:06;;;;;;;8.68;5.25;;;;;;;;;;5066988;28;20036;-81
2023/11/29 12:47:32;;;;;;;8.15;5.78;;;;;;;;;;5062899;28;20017;-81
2023/11/29 12:49:58;;;;;;;7.57;5.15;;;;;;;;;;5053994;28;20033;-81
2023/11/29 12:52:23;;;;;;;8.05;5.40;;;;;;;;;;5068680;28;20090;-81
2023/11/29 12:54:49;;;;;;;8.20;5.70;;;;;;;;;;5052688;28;20044;-81
2023/11/29 12:57:14;;;;;;;10.40;6.78;;;;;;;;;;5050607;28;20098;-81
2023/11/29 12:59:39;;;;;;;10.20;6.65;;;;;;;;;;5064523;28;20033;-81
2023/11/29 13:02:05;;;;;;;9.52;5.95;;;;;;;;;;5057033;28;20046;-81
2023/11/29 13:04:30;;;;;;;10.32;5.53;;;;;;;;;;5067416;28;20035;-81
2023/11/29 13:06:56;;;;;;;9.40;6.65;;;;;;;;;;5053514;28;20024;-81
2023/11/29 13:09:21;;;;;;;8.85;5.38;;;;;;;;;;5053060;28;20024;-81
2023/11/29 13:11:47;;;;;;;13.02;8.75;;;;;;;;;;5069784;28;20036;-81
2023/11/29 13:14:12;;;;;;;12.07;6.80;;;;;;;;;;5048080;28;20032;-81
2023/11/29 13:16:37;;;;;;;15.40;7.93;;;;;;;;;;5070058;28;20481;-81
2023/11/29 13:19:03;;;;;;;10.16;6.30;;;;;;;;;;5073889;28;20024;-81
2023/11/29 13:21:32;;;;;;;9.27;6.50;;;;;;;;;;5066836;28;20544;-81
2023/11/29 13:23:57;;;;;;;10.57;6.70;;;;;;;;;;5066842;28;20374;-81
2023/11/29 13:26:23;;;;;;;12.70;6.70;;;;;;;;;;5066465;28;20037;-81
2023/11/29 13:28:48;;;;;;;9.43;6.25;;;;;;;;;;5071734;28;20027;-81
2023/11/29 13:31:13;;;;;;;9.93;6.38;;;;;;;;;;5068221;28;20514;-81
2023/11/29 13:33:39;;;;;;;10.80;6.65;;;;;;;;;;5068297;28;20085;-81
2023/11/29 13:36:07;;;;;;;32.35;19.35;;;;;;;;;;5070824;28;20123;-81
2023/11/29 13:38:33;;;;;;;10.88;6.25;;;;;;;;;;5067350;28;20029;-81
2023/11/29 13:40:58;;;;;;;9.00;6.20;;;;;;;;;;5066573;28;20047;-81
2023/11/29 13:43:23;;;;;;;9.88;6.63;;;;;;;;;;5061531;28;20045;-81
2023/11/29 13:45:48;;;;;;;9.18;6.28;;;;;;;;;;5052609;28;20104;-81
2023/11/29 13:48:13;;;;;;;9.50;6.10;;;;;;;;;;5069623;28;20020;-81
2023/11/29 13:50:39;;;;;;;9.82;6.80;;;;;;;;;;5065129;28;20378;-81
2023/11/29 13:53:04;;;;;;;10.45;7.40;;;;;;;;;;5067871;28;20033;-81
2023/11/29 13:55:29;;;;;;;10.40;6.18;;;;;;;;;;5066525;28;20404;-81
2023/11/29 13:57:55;;;;;;;12.07;7.85;;;;;;;;;;5070694;28;20036;-81
2023/11/29 14:00:21;;;;;;;11.20;6.95;;;;;;;;;;5059953;28;20478;-81
2023/11/29 14:02:47;;;;;;;11.85;7.00;;;;;;;;;;5073727;28;20029;-81
2023/11/29 14:05:12;;;;;;;8.43;5.78;;;;;;;;;;5067796;28;20478;-80
2023/11/29 14:07:37;;;;;;;11.07;6.75;;;;;;;;;;5072846;28;20083;-82
2023/11/29 14:10:02;;;;;;;8.00;5.65;;;;;;;;;;5063038;28;20032;-82
2023/11/29 14:12:27;;;;;;;8.35;5.57;;;;;;;;;;5070845;28;20123;-80
2023/11/29 14:14:53;;;;;;;10.95;6.60;;;;;;;;;;5074445;28;20111;-81
2023/11/29 14:17:18;;;;;;;10.30;6.35;;;;;;;;;;5064818;28;20044;-81
2023/11/29 14:19:43;;;;;;;9.93;6.90;;;;;;;;;;5069821;28;20036;-81
2023/11/29 14:22:08;;;;;;;8.90;5.60;;;;;;;;;;5065897;28;20052;-81
2023/11/29 14:24:33;;;;;;;10.32;7.07;;;;;;;;;;5067261;28;20390;-82
2023/11/29 14:26:59;;;;;;;10.38;6.30;;;;;;;;;;5077435;28;20459;-82
2023/11/29 14:29:24;;;;;;;10.05;6.75;;;;;;;;;;5072789;28;20028;-82